createdAt,value
2023-01-29T00:03:57.558Z,90.93
2023-01-29T00:06:43.450Z,91.75
2023-01-29T00:09:29.482Z,92.97
2023-01-29T00:12:15.325Z,91.29
2023-01-29T00:15:01.229Z,90.95
2023-01-29T00:17:47.318Z,92.07
2023-01-29T00:20:33.176Z,90.65
2023-01-29T00:23:19.154Z,91.08
2023-01-29T00:26:05.060Z,90.34
2023-01-29T00:28:50.969Z,90.61
2023-01-29T00:31:37.025Z,91.67
2023-01-29T00:34:22.922Z,91.36
2023-01-29T00:37:08.859Z,93.07
2023-01-29T00:39:54.841Z,92.70
2023-01-29T00:42:40.673Z,91.40
2023-01-29T00:45:26.593Z,91.53
2023-01-29T00:48:12.643Z,91.78
2023-01-29T00:50:58.493Z,93.72
2023-01-29T00:53:44.445Z,93.66
2023-01-29T00:56:30.165Z,94.40
2023-01-29T00:59:16.100Z,94.46
2023-01-29T01:02:02.187Z,94.05
2023-01-29T01:04:48.181Z,93.25
2023-01-29T01:07:34.116Z,94.30
2023-01-29T01:10:20.155Z,95.88
2023-01-29T01:13:06.046Z,96.37
2023-01-29T01:15:52.021Z,95.92
2023-01-29T01:18:37.921Z,95.38
2023-01-29T01:21:23.881Z,95.62
2023-01-29T01:24:09.823Z,95.17
2023-01-29T01:26:55.705Z,94.29
2023-01-29T01:29:41.896Z,94.34
2023-01-29T01:32:27.755Z,92.94
2023-01-29T01:35:13.562Z,95.40
2023-01-29T01:37:59.530Z,95.91
2023-01-29T01:40:45.354Z,96.41
2023-01-29T01:43:31.282Z,98.90
2023-01-29T01:46:17.306Z,98.47
2023-01-29T01:49:03.204Z,98.67
2023-01-29T01:51:49.055Z,97.84
2023-01-29T01:54:34.826Z,98.84
2023-01-29T01:57:20.686Z,98.44
2023-01-29T02:00:06.602Z,99.94
2023-01-29T02:02:52.494Z,100.00
2023-01-29T02:05:38.312Z,98.11
2023-01-29T02:08:24.189Z,96.78
2023-01-29T02:11:10.135Z,98.02
2023-01-29T02:13:56.201Z,95.87
2023-01-29T02:16:41.883Z,95.13
2023-01-29T02:19:27.895Z,98.09
2023-01-29T02:22:13.834Z,97.26
2023-01-29T02:24:59.651Z,97.68
2023-01-29T02:27:45.544Z,96.78
2023-01-29T02:30:31.325Z,98.71
2023-01-29T02:33:17.320Z,97.75
2023-01-29T02:36:03.355Z,97.92
2023-01-29T02:38:49.177Z,97.11
2023-01-29T02:41:35.097Z,96.81
2023-01-29T02:44:20.983Z,95.67
2023-01-29T02:47:06.757Z,96.49
2023-01-29T02:49:52.607Z,95.11
2023-01-29T02:52:40.583Z,93.92
2023-01-29T02:55:26.497Z,94.77
2023-01-29T02:58:12.458Z,94.82
2023-01-29T03:00:58.497Z,94.33
2023-01-29T03:03:44.514Z,95.42
2023-01-29T03:06:30.588Z,94.17
2023-01-29T03:09:16.332Z,94.02
2023-01-29T03:12:02.312Z,94.43
2023-01-29T03:14:50.354Z,94.54
2023-01-29T03:17:36.200Z,93.82
2023-01-29T03:20:22.128Z,93.68
2023-01-29T03:23:08.014Z,93.65
2023-01-29T03:25:53.835Z,93.50
2023-01-29T03:28:39.787Z,94.33
2023-01-29T03:31:25.619Z,93.95
2023-01-29T03:34:12.022Z,93.95
2023-01-29T03:36:57.912Z,93.07
2023-01-29T03:39:43.842Z,93.65
2023-01-29T03:42:29.758Z,93.95
2023-01-29T03:45:15.738Z,92.11
2023-01-29T03:48:01.688Z,92.97
2023-01-29T03:50:47.652Z,93.63
2023-01-29T03:53:33.453Z,93.26
2023-01-29T03:56:19.154Z,91.93
2023-01-29T03:59:05.243Z,92.70
2023-01-29T04:01:51.065Z,94.34
2023-01-29T04:04:36.940Z,93.08
2023-01-29T04:07:22.823Z,92.59
2023-01-29T04:10:08.666Z,91.69
2023-01-29T04:12:54.757Z,89.38
2023-01-29T04:15:40.564Z,88.62
2023-01-29T04:18:26.498Z,89.22
2023-01-29T04:21:12.483Z,90.92
2023-01-29T04:23:58.418Z,89.25
2023-01-29T04:26:44.415Z,90.56
2023-01-29T04:29:30.404Z,91.63
2023-01-29T04:32:16.567Z,91.36
2023-01-29T04:35:02.472Z,90.93
2023-01-29T04:37:48.340Z,90.45
2023-01-29T04:40:34.366Z,89.11
2023-01-29T04:43:22.258Z,89.51
2023-01-29T04:46:08.139Z,88.96
2023-01-29T04:48:54.061Z,89.63
2023-01-29T04:51:39.986Z,90.02
2023-01-29T04:54:25.904Z,89.65
2023-01-29T04:57:11.812Z,88.07
2023-01-29T04:59:57.698Z,87.89
2023-01-29T05:02:43.794Z,86.35
2023-01-29T05:05:29.716Z,84.43
2023-01-29T05:08:15.605Z,86.07
2023-01-29T05:11:01.594Z,85.73
2023-01-29T05:13:47.514Z,85.81
2023-01-29T05:16:33.374Z,86.17
2023-01-29T05:19:19.243Z,82.45
2023-01-29T05:22:05.159Z,85.12
2023-01-29T05:24:51.007Z,86.47
2023-01-29T05:27:37.078Z,86.37
2023-01-29T05:30:22.957Z,86.00
2023-01-29T05:33:08.829Z,84.66
2023-01-29T05:35:54.672Z,87.29
2023-01-29T05:38:42.658Z,86.55
2023-01-29T05:41:28.664Z,86.29
2023-01-29T05:44:14.493Z,86.40
2023-01-29T05:47:00.471Z,83.84
2023-01-29T05:49:46.409Z,83.77
2023-01-29T05:52:32.208Z,80.80
2023-01-29T05:55:18.491Z,83.20
2023-01-29T05:58:05.958Z,83.25
2023-01-29T06:00:51.970Z,84.85
2023-01-29T06:03:38.128Z,83.96
2023-01-29T06:06:24.098Z,82.74
2023-01-29T06:09:10.001Z,80.43
2023-01-29T06:11:55.868Z,85.11
2023-01-29T06:14:41.759Z,87.69
2023-01-29T06:17:27.682Z,87.75
2023-01-29T06:20:13.725Z,86.56
2023-01-29T06:22:59.623Z,86.67
2023-01-29T06:25:45.537Z,84.90
2023-01-29T06:28:31.425Z,84.56
2023-01-29T06:31:36.723Z,84.68
2023-01-29T06:34:23.390Z,82.25
2023-01-29T06:37:09.313Z,83.60
2023-01-29T06:39:55.173Z,84.64
2023-01-29T06:42:41.065Z,85.68
2023-01-29T06:45:26.849Z,84.57
2023-01-29T06:48:12.884Z,83.98
2023-01-29T06:50:58.706Z,84.90
2023-01-29T06:53:46.205Z,83.84
2023-01-29T06:56:32.645Z,82.99
2023-01-29T06:59:18.608Z,83.04
2023-01-29T07:02:04.489Z,82.11
2023-01-29T07:04:50.430Z,79.27
2023-01-29T07:07:36.315Z,81.25
2023-01-29T07:10:22.073Z,80.95
2023-01-29T07:13:07.944Z,79.70
2023-01-29T07:15:53.686Z,81.47
2023-01-29T07:18:39.643Z,80.63
2023-01-29T07:21:25.596Z,82.82
2023-01-29T07:24:11.491Z,82.70
2023-01-29T07:26:57.251Z,82.96
2023-01-29T07:29:43.017Z,82.35
2023-01-29T07:32:28.873Z,81.33
2023-01-29T07:35:14.781Z,79.38
2023-01-29T07:38:00.654Z,79.08
2023-01-29T07:40:46.545Z,79.50
2023-01-29T07:43:32.344Z,78.99
2023-01-29T07:46:20.176Z,78.99
2023-01-29T07:49:06.204Z,79.34
2023-01-29T07:51:52.097Z,77.08
2023-01-29T07:54:38.043Z,74.60
2023-01-29T07:57:24.010Z,75.84
2023-01-29T08:00:09.941Z,75.24
2023-01-29T08:02:55.940Z,74.11
2023-01-29T08:05:41.824Z,74.33
2023-01-29T08:08:27.677Z,77.35
2023-01-29T08:11:13.756Z,76.03
2023-01-29T08:13:59.586Z,76.54
2023-01-29T08:16:45.525Z,73.81
2023-01-29T08:19:31.582Z,75.23
2023-01-29T08:22:17.398Z,77.17
2023-01-29T08:25:08.337Z,77.23
2023-01-29T08:27:54.434Z,75.57
2023-01-29T08:30:42.314Z,76.28
2023-01-29T08:33:40.071Z,75.09
2023-01-29T08:36:26.087Z,73.76
2023-01-29T08:39:11.910Z,75.54
2023-01-29T08:41:57.861Z,75.31
2023-01-29T08:44:43.666Z,75.60
2023-01-29T08:47:29.761Z,75.54
2023-01-29T08:50:16.234Z,76.24
2023-01-29T08:53:02.320Z,74.13
2023-01-29T08:55:48.187Z,73.11
2023-01-29T08:58:34.446Z,73.50
2023-01-29T09:01:20.411Z,72.51
2023-01-29T09:04:06.375Z,73.83
2023-01-29T09:06:52.191Z,73.34
2023-01-29T09:09:38.133Z,69.41
2023-01-29T09:12:23.935Z,70.66
2023-01-29T09:15:09.764Z,70.47
2023-01-29T09:17:55.731Z,70.17
2023-01-29T09:20:41.654Z,69.26
2023-01-29T09:23:27.472Z,68.92
2023-01-29T09:26:13.483Z,67.94
2023-01-29T09:28:59.330Z,67.90
2023-01-29T09:31:45.316Z,70.00
2023-01-29T09:34:31.189Z,72.33
2023-01-29T09:37:16.997Z,70.14
2023-01-29T09:40:02.806Z,71.49
2023-01-29T09:42:48.722Z,69.44
2023-01-29T09:45:36.553Z,68.11
2023-01-29T09:48:22.554Z,68.49
2023-01-29T09:51:08.382Z,66.91
2023-01-29T09:53:54.311Z,67.86
2023-01-29T09:56:40.160Z,66.56
2023-01-29T09:59:25.981Z,69.60
2023-01-29T10:02:12.154Z,69.52
2023-01-29T10:04:58.570Z,71.90
2023-01-29T10:07:44.361Z,71.79
2023-01-29T10:10:30.217Z,72.88
2023-01-29T10:13:16.083Z,74.21
2023-01-29T10:16:01.939Z,73.92
2023-01-29T10:18:47.838Z,71.02
2023-01-29T10:21:33.582Z,67.33
2023-01-29T10:24:19.657Z,68.91
2023-01-29T10:27:05.497Z,72.33
2023-01-29T10:29:51.281Z,72.89
2023-01-29T10:32:37.232Z,73.82
2023-01-29T10:35:23.171Z,71.52
2023-01-29T10:38:09.034Z,71.18
2023-01-29T10:40:55.092Z,72.33
2023-01-29T10:43:40.960Z,69.83
2023-01-29T10:46:26.799Z,71.33
2023-01-29T10:49:12.600Z,71.78
2023-01-29T10:51:58.530Z,71.88
2023-01-29T10:54:44.469Z,69.41
2023-01-29T10:57:30.431Z,68.95
2023-01-29T11:00:16.339Z,69.45
2023-01-29T11:03:02.540Z,68.08
2023-01-29T11:05:48.612Z,69.76
2023-01-29T11:08:34.559Z,70.91
2023-01-29T11:11:20.461Z,71.13
2023-01-29T11:14:06.333Z,70.50
2023-01-29T11:16:52.423Z,69.74
2023-01-29T11:19:38.281Z,69.50
2023-01-29T11:22:24.237Z,66.28
2023-01-29T11:25:10.160Z,66.49
2023-01-29T11:27:56.118Z,65.42
2023-01-29T11:30:42.131Z,66.37
2023-01-29T11:33:28.067Z,64.31
2023-01-29T11:36:13.944Z,62.70
2023-01-29T11:38:59.899Z,63.16
2023-01-29T11:41:45.699Z,62.34
2023-01-29T11:44:31.542Z,62.99
2023-01-29T11:47:17.555Z,63.14
2023-01-29T11:50:03.535Z,62.95
2023-01-29T11:52:49.456Z,62.69
2023-01-29T11:55:49.483Z,59.68
2023-01-29T11:58:36.009Z,59.05
2023-01-29T12:01:21.970Z,57.70
2023-01-29T12:04:07.831Z,57.40
2023-01-29T12:06:53.807Z,55.98
2023-01-29T12:09:39.602Z,58.35
2023-01-29T12:12:25.367Z,56.94
2023-01-29T12:15:11.296Z,56.65
2023-01-29T12:17:57.193Z,54.79
2023-01-29T12:20:43.132Z,52.19
2023-01-29T12:23:29.136Z,53.28
2023-01-29T12:26:15.103Z,55.32
2023-01-29T12:29:01.162Z,56.52
2023-01-29T12:31:47.056Z,56.01
2023-01-29T12:34:32.909Z,55.27
2023-01-29T12:37:18.721Z,54.83
2023-01-29T12:40:04.736Z,57.26
2023-01-29T12:42:50.769Z,59.16
2023-01-29T12:45:36.569Z,58.38
2023-01-29T12:48:22.316Z,58.20
2023-01-29T12:51:08.240Z,56.01
2023-01-29T12:53:54.161Z,55.53
2023-01-29T12:56:40.108Z,56.09
2023-01-29T12:59:27.429Z,55.30
2023-01-29T13:02:14.818Z,54.26
2023-01-29T13:05:00.816Z,53.96
2023-01-29T13:07:46.664Z,55.19
2023-01-29T13:10:32.638Z,57.77
2023-01-29T13:13:18.366Z,60.34
2023-01-29T13:16:04.564Z,59.78
2023-01-29T13:18:50.410Z,60.74
2023-01-29T13:21:36.470Z,60.04
2023-01-29T13:24:22.187Z,58.12
2023-01-29T13:27:08.079Z,60.25
2023-01-29T13:29:54.128Z,59.91
2023-01-29T13:32:39.973Z,59.77
2023-01-29T13:35:25.910Z,59.15
2023-01-29T13:38:11.887Z,60.10
2023-01-29T13:40:57.822Z,61.21
2023-01-29T13:43:43.760Z,60.51
2023-01-29T13:46:29.666Z,60.29
2023-01-29T13:49:15.514Z,60.20
2023-01-29T13:52:01.464Z,59.64
2023-01-29T13:54:47.374Z,60.40
2023-01-29T13:57:33.432Z,61.11
2023-01-29T14:00:19.282Z,62.91
2023-01-29T14:03:05.259Z,62.82
2023-01-29T14:05:51.198Z,63.13
2023-01-29T14:08:37.032Z,63.08
2023-01-29T14:11:22.877Z,61.07
2023-01-29T14:14:08.762Z,60.64
2023-01-29T14:16:54.630Z,61.16
2023-01-29T14:19:40.680Z,61.35
2023-01-29T14:22:26.505Z,64.38
2023-01-29T14:25:12.366Z,64.86
2023-01-29T14:27:58.318Z,65.52
2023-01-29T14:30:44.307Z,65.83
2023-01-29T14:33:30.321Z,64.63
2023-01-29T14:36:16.280Z,64.80
2023-01-29T14:39:02.138Z,63.71
2023-01-29T14:41:48.107Z,62.77
2023-01-29T14:44:34.046Z,61.45
2023-01-29T14:47:20.071Z,64.83
2023-01-29T14:50:06.112Z,67.29
2023-01-29T14:52:51.984Z,66.78
2023-01-29T14:55:38.030Z,65.41
2023-01-29T14:58:23.882Z,63.74
2023-01-29T15:01:09.907Z,62.81
2023-01-29T15:03:55.941Z,61.13
2023-01-29T15:06:41.889Z,61.00
2023-01-29T15:09:35.933Z,60.49
2023-01-29T15:12:22.629Z,58.95
2023-01-29T15:15:08.521Z,57.70
2023-01-29T15:17:54.466Z,55.99
2023-01-29T15:20:40.329Z,54.66
2023-01-29T15:23:26.312Z,52.92
2023-01-29T15:26:12.242Z,52.71
2023-01-29T15:29:04.329Z,51.34
2023-01-29T15:31:51.322Z,52.20
2023-01-29T15:34:37.595Z,50.62
2023-01-29T15:37:23.416Z,50.17
2023-01-29T15:40:09.529Z,49.05
2023-01-29T15:42:55.507Z,49.44
2023-01-29T15:45:41.467Z,49.95
2023-01-29T15:48:27.373Z,50.01
2023-01-29T15:51:13.233Z,50.04
2023-01-29T15:53:59.228Z,52.35
2023-01-29T15:56:45.094Z,55.14
2023-01-29T15:59:30.932Z,57.41
2023-01-29T16:02:16.933Z,58.78
2023-01-29T16:05:02.793Z,59.48
2023-01-29T16:07:48.823Z,59.33
2023-01-29T16:10:34.746Z,58.61
2023-01-29T16:13:20.629Z,56.45
2023-01-29T16:16:06.729Z,56.07
2023-01-29T16:19:00.070Z,54.86
2023-01-29T16:21:47.427Z,53.89
2023-01-29T16:24:33.232Z,51.89
2023-01-29T16:27:19.069Z,51.49
2023-01-29T16:30:05.057Z,51.68
2023-01-29T16:32:51.026Z,52.92
2023-01-29T16:35:36.951Z,53.32
2023-01-29T16:38:22.954Z,53.17
2023-01-29T16:41:08.887Z,51.90
2023-01-29T16:43:54.904Z,50.81
2023-01-29T16:46:41.041Z,50.49
2023-01-29T16:49:27.068Z,50.25
2023-01-29T16:52:13.084Z,49.56
2023-01-29T16:54:58.941Z,50.44
2023-01-29T16:57:44.794Z,51.36
2023-01-29T17:00:30.630Z,52.25
2023-01-29T17:03:16.806Z,52.07
2023-01-29T17:06:02.701Z,51.67
2023-01-29T17:08:48.607Z,51.13
2023-01-29T17:11:34.595Z,50.85
2023-01-29T17:14:20.475Z,51.87
2023-01-29T17:17:06.463Z,53.24
2023-01-29T17:19:52.421Z,54.55
2023-01-29T17:22:38.316Z,55.91
2023-01-29T17:25:24.470Z,56.20
2023-01-29T17:28:10.679Z,55.02
2023-01-29T17:31:05.877Z,53.57
2023-01-29T17:33:52.922Z,54.68
2023-01-29T17:36:38.769Z,56.40
2023-01-29T17:39:24.869Z,57.64
2023-01-29T17:42:12.803Z,59.22
2023-01-29T17:44:58.626Z,61.09
2023-01-29T17:47:44.542Z,61.99
2023-01-29T17:50:30.516Z,61.87
2023-01-29T17:53:16.485Z,63.22
2023-01-29T17:56:02.464Z,64.46
2023-01-29T17:58:48.336Z,64.41
2023-01-29T18:01:36.249Z,64.93
2023-01-29T18:04:22.293Z,65.93
2023-01-29T18:07:08.176Z,64.57
2023-01-29T18:09:54.261Z,65.23
2023-01-29T18:12:40.540Z,66.91
2023-01-29T18:15:26.483Z,68.43
2023-01-29T18:18:13.470Z,66.33
2023-01-29T18:20:59.372Z,65.31
2023-01-29T18:23:45.303Z,63.47
2023-01-29T18:26:31.220Z,61.83
2023-01-29T18:29:17.176Z,59.45
2023-01-29T18:32:03.046Z,59.07
2023-01-29T18:34:49.397Z,60.38
2023-01-29T18:37:35.247Z,61.12
2023-01-29T18:40:21.242Z,60.58
2023-01-29T18:43:07.137Z,58.66
2023-01-29T18:45:53.169Z,57.46
2023-01-29T18:48:41.600Z,57.23
2023-01-29T18:51:28.326Z,56.20
2023-01-29T18:54:14.195Z,55.86
2023-01-29T18:57:11.150Z,58.77
2023-01-29T19:00:00.118Z,65.78
2023-01-29T19:02:46.546Z,66.17
2023-01-29T19:05:32.498Z,64.92
2023-01-29T19:08:18.538Z,66.19
2023-01-29T19:11:04.457Z,68.10
2023-01-29T19:13:50.448Z,68.12
2023-01-29T19:16:38.393Z,67.05
2023-01-29T19:19:24.376Z,66.63
2023-01-29T19:22:10.275Z,67.38
2023-01-29T19:24:56.211Z,67.15
2023-01-29T19:27:42.169Z,61.06
2023-01-29T19:30:28.045Z,59.66
2023-01-29T19:33:14.114Z,60.22
2023-01-29T19:36:00.062Z,58.80
2023-01-29T19:38:45.932Z,58.59
2023-01-29T19:41:31.880Z,58.00
2023-01-29T19:44:17.730Z,59.70
2023-01-29T19:47:03.645Z,58.43
2023-01-29T19:49:49.590Z,56.77
2023-01-29T19:52:50.151Z,56.84
2023-01-29T19:55:37.006Z,57.68
2023-01-29T19:58:22.992Z,58.10
2023-01-29T20:01:08.964Z,62.01
2023-01-29T20:03:55.004Z,67.86
2023-01-29T20:06:40.941Z,71.21
2023-01-29T20:09:26.877Z,69.99
2023-01-29T20:12:12.937Z,75.80
2023-01-29T20:14:58.698Z,74.80
2023-01-29T20:17:44.587Z,68.94
2023-01-29T20:20:32.614Z,68.15
2023-01-29T20:23:35.233Z,69.06
2023-01-29T20:26:23.027Z,65.61
2023-01-29T20:29:09.439Z,64.05
2023-01-29T20:31:55.296Z,65.88
2023-01-29T20:34:41.201Z,67.84
2023-01-29T20:37:27.204Z,66.41
2023-01-29T20:40:13.166Z,65.98
2023-01-29T20:42:59.146Z,64.94
2023-01-29T20:45:44.976Z,62.26
2023-01-29T20:48:31.339Z,61.79
2023-01-29T20:51:17.242Z,61.79
2023-01-29T20:54:03.100Z,62.81
2023-01-29T20:56:49.078Z,63.28
2023-01-29T20:59:35.087Z,63.68
2023-01-29T21:02:21.108Z,63.82
2023-01-29T21:05:07.105Z,62.17
2023-01-29T21:07:53.075Z,62.67
2023-01-29T21:10:38.949Z,64.95
2023-01-29T21:13:24.951Z,71.19
2023-01-29T21:16:10.907Z,68.44
2023-01-29T21:18:57.119Z,65.97
2023-01-29T21:21:43.016Z,68.61
2023-01-29T21:24:28.936Z,66.54
2023-01-29T21:27:14.963Z,65.01
2023-01-29T21:30:00.885Z,66.05
2023-01-29T21:32:49.701Z,66.06
2023-01-29T21:35:35.638Z,64.45
2023-01-29T21:38:21.605Z,63.98
2023-01-29T21:41:07.725Z,64.69
2023-01-29T21:43:53.775Z,63.71
2023-01-29T21:46:39.598Z,61.72
2023-01-29T21:49:25.595Z,60.69
2023-01-29T21:52:11.633Z,59.90
2023-01-29T21:54:57.599Z,63.09
2023-01-29T21:57:43.583Z,63.91
2023-01-29T22:00:29.519Z,62.84
2023-01-29T22:03:15.507Z,60.55
2023-01-29T22:06:01.577Z,61.54
2023-01-29T22:08:47.411Z,63.91
2023-01-29T22:11:33.486Z,62.17
2023-01-29T22:14:19.356Z,62.72
2023-01-29T22:17:05.435Z,66.44
2023-01-29T22:19:51.446Z,68.19
2023-01-29T22:22:37.222Z,67.07
2023-01-29T22:25:23.255Z,65.73
2023-01-29T22:28:09.124Z,64.24
2023-01-29T22:30:55.213Z,63.24
2023-01-29T22:33:41.178Z,63.35
2023-01-29T22:36:27.173Z,63.45
2023-01-29T22:39:13.102Z,64.66
2023-01-29T22:41:59.152Z,64.71
2023-01-29T22:44:44.960Z,63.63
2023-01-29T22:47:30.817Z,62.82
2023-01-29T22:50:17.210Z,63.58
2023-01-29T22:53:03.450Z,63.47
2023-01-29T22:55:49.344Z,62.71
2023-01-29T22:58:35.171Z,62.97
2023-01-29T23:01:21.174Z,62.13
2023-01-29T23:04:07.200Z,61.77
2023-01-29T23:06:52.979Z,60.92
2023-01-29T23:09:38.911Z,61.67
2023-01-29T23:12:26.856Z,60.60
2023-01-29T23:15:12.592Z,60.59
2023-01-29T23:17:58.469Z,59.91
2023-01-29T23:20:44.570Z,60.01
2023-01-29T23:23:30.417Z,58.83
2023-01-29T23:26:16.512Z,58.16
2023-01-29T23:29:02.454Z,58.14
2023-01-29T23:31:48.673Z,57.94
2023-01-29T23:34:35.014Z,58.45
2023-01-29T23:37:20.850Z,57.58
2023-01-29T23:40:06.811Z,56.55
2023-01-29T23:42:52.631Z,56.15
2023-01-29T23:45:38.487Z,56.47
2023-01-29T23:48:24.409Z,57.08
2023-01-29T23:51:10.306Z,56.57
2023-01-29T23:53:56.155Z,56.14
2023-01-29T23:56:42.081Z,55.78
2023-01-29T23:59:27.898Z,55.85
